Time;durP1;ratioP1;P1;durP2;ratioP2;P2;SDS_P1;SDS_P2;PMS_P1;PMS_P2;Temp;Humidity;BMP_temperature;BMP_pressure;BME280_temperature;BME280_humidity;BME280_pressure;Samples;Min_cycle;Max_cycle;Signal;HPM_P1;HPM_P2
2022/06/01 00:00:44;;;;;;;8.25;3.47;;;;;;;;;;5001688;28;20141;-75
2022/06/01 00:03:10;;;;;;;6.13;3.75;;;;;;;;;;5007008;28;20022;-75
2022/06/01 00:05:37;;;;;;;7.93;3.67;;;;;;;;;;5012188;28;20026;-75
2022/06/01 00:08:03;;;;;;;4.75;3.70;;;;;;;;;;5007662;28;20028;-76
2022/06/01 00:10:30;;;;;;;6.18;3.33;;;;;;;;;;5001273;28;20034;-75
2022/06/01 00:12:56;;;;;;;6.57;3.30;;;;;;;;;;5008785;28;20134;-75
2022/06/01 00:15:24;;;;;;;4.95;3.70;;;;;;;;;;5010362;28;20026;-76
2022/06/01 00:17:50;;;;;;;5.05;3.08;;;;;;;;;;5010384;28;20438;-73
2022/06/01 00:20:16;;;;;;;8.02;3.30;;;;;;;;;;5011524;28;20041;-76
2022/06/01 00:22:43;;;;;;;6.72;3.55;;;;;;;;;;5008785;28;20526;-76
2022/06/01 00:25:10;;;;;;;6.38;3.50;;;;;;;;;;5009055;28;20080;-74
2022/06/01 00:27:37;;;;;;;6.28;3.80;;;;;;;;;;5008512;28;20095;-74
2022/06/01 00:30:08;;;;;;;5.50;3.17;;;;;;;;;;5011163;28;20030;-75
2022/06/01 00:32:34;;;;;;;6.72;3.35;;;;;;;;;;5014475;28;20040;-74
2022/06/01 00:35:01;;;;;;;6.78;3.60;;;;;;;;;;5030577;28;20029;-74
2022/06/01 00:37:27;;;;;;;5.45;3.58;;;;;;;;;;5000662;28;20054;-75
2022/06/01 00:39:53;;;;;;;6.32;3.63;;;;;;;;;;5011689;28;20100;-76
2022/06/01 00:42:21;;;;;;;7.80;3.53;;;;;;;;;;4996689;28;20768;-75
2022/06/01 00:44:48;;;;;;;5.95;3.53;;;;;;;;;;4994408;28;20034;-74
2022/06/01 00:47:17;;;;;;;7.50;3.95;;;;;;;;;;5012409;28;20487;-75
2022/06/01 00:49:46;;;;;;;6.15;3.50;;;;;;;;;;5021507;28;20108;-76
2022/06/01 00:52:12;;;;;;;6.55;3.53;;;;;;;;;;5011520;28;20028;-75
2022/06/01 00:54:39;;;;;;;8.10;4.15;;;;;;;;;;5024754;28;20029;-75
2022/06/01 00:57:08;;;;;;;6.85;3.83;;;;;;;;;;5004432;28;20026;-74
2022/06/01 00:59:37;;;;;;;6.80;3.28;;;;;;;;;;4996927;28;20026;-75
2022/06/01 01:02:03;;;;;;;5.32;3.90;;;;;;;;;;5013957;28;20026;-75
2022/06/01 01:04:31;;;;;;;5.68;3.72;;;;;;;;;;5011808;28;20479;-75
2022/06/01 01:07:00;;;;;;;5.63;3.65;;;;;;;;;;5005861;28;20044;-75
2022/06/01 01:09:26;;;;;;;4.57;3.67;;;;;;;;;;5006150;28;20456;-75
2022/06/01 01:11:55;;;;;;;6.47;3.63;;;;;;;;;;5012420;28;20044;-75
2022/06/01 01:14:24;;;;;;;6.70;4.35;;;;;;;;;;5013238;28;20033;-74
2022/06/01 01:16:50;;;;;;;7.40;3.80;;;;;;;;;;5017445;28;20033;-75
2022/06/01 01:19:35;;;;;;;5.80;3.70;;;;;;;;;;5007793;28;20033;-75
2022/06/01 01:22:07;;;;;;;5.30;3.65;;;;;;;;;;4999749;28;20053;-74
2022/06/01 01:24:43;;;;;;;8.77;3.33;;;;;;;;;;5007988;28;20139;-74
2022/06/01 01:27:09;;;;;;;5.63;3.67;;;;;;;;;;5024272;28;20112;-77
2022/06/01 01:29:40;;;;;;;6.47;3.42;;;;;;;;;;5023279;28;20033;-76
2022/06/01 01:32:07;;;;;;;7.10;4.35;;;;;;;;;;4991592;28;20026;-75
2022/06/01 01:34:34;;;;;;;5.57;4.25;;;;;;;;;;4991540;28;20492;-75
2022/06/01 01:37:02;;;;;;;5.25;3.55;;;;;;;;;;5003354;28;20141;-72
2022/06/01 01:39:30;;;;;;;5.63;4.22;;;;;;;;;;5019336;28;20559;-73
2022/06/01 01:41:57;;;;;;;4.65;3.30;;;;;;;;;;5009477;28;20109;-75
2022/06/01 01:44:26;;;;;;;6.78;3.33;;;;;;;;;;5009643;28;20033;-74
2022/06/01 01:46:52;;;;;;;5.10;3.78;;;;;;;;;;5007749;28;20022;-75
2022/06/01 01:49:21;;;;;;;5.32;3.30;;;;;;;;;;5012290;28;20029;-75
2022/06/01 01:51:47;;;;;;;6.43;3.92;;;;;;;;;;5006639;28;20022;-74
2022/06/01 01:54:34;;;;;;;5.68;3.80;;;;;;;;;;5004185;28;20105;-74
2022/06/01 01:57:08;;;;;;;7.40;3.85;;;;;;;;;;4996441;28;20168;-75
2022/06/01 01:59:34;;;;;;;5.55;3.38;;;;;;;;;;5010616;28;20051;-74
2022/06/01 02:02:07;;;;;;;7.50;4.07;;;;;;;;;;5012585;28;20109;-74
2022/06/01 02:07:31;;;;;;;8.38;3.42;;;;;;;;;;4994558;28;20454;-73
2022/06/01 02:12:42;;;;;;;6.35;3.72;;;;;;;;;;5009472;28;20499;-73
2022/06/01 02:15:10;;;;;;;6.05;3.40;;;;;;;;;;5015308;28;20025;-73
2022/06/01 02:17:40;;;;;;;5.90;3.95;;;;;;;;;;5002820;28;20026;-74
2022/06/01 02:20:12;;;;;;;5.45;3.28;;;;;;;;;;5005947;28;20026;-73
2022/06/01 02:22:39;;;;;;;6.28;3.75;;;;;;;;;;5011346;28;20030;-73
2022/06/01 02:25:06;;;;;;;7.43;3.50;;;;;;;;;;5000690;28;20040;-74
2022/06/01 02:27:33;;;;;;;7.93;3.60;;;;;;;;;;5008739;28;20026;-74
2022/06/01 02:30:02;;;;;;;4.97;3.35;;;;;;;;;;5005620;28;20026;-74
2022/06/01 02:32:28;;;;;;;5.57;3.85;;;;;;;;;;4999589;28;20536;-74
2022/06/01 02:34:55;;;;;;;6.13;3.78;;;;;;;;;;4999898;28;20457;-74
2022/06/01 02:37:23;;;;;;;5.18;3.67;;;;;;;;;;5012090;28;20514;-73
2022/06/01 02:39:52;;;;;;;7.68;4.00;;;;;;;;;;5000385;28;20045;-72
2022/06/01 02:42:30;;;;;;;5.95;3.53;;;;;;;;;;5009519;28;20041;-74
2022/06/01 02:45:02;;;;;;;7.25;3.75;;;;;;;;;;4994041;28;20972;-72
2022/06/01 02:47:32;;;;;;;6.10;4.15;;;;;;;;;;5008288;28;20654;-73
2022/06/01 02:49:59;;;;;;;5.82;4.00;;;;;;;;;;5003374;28;20030;-74
2022/06/01 02:52:27;;;;;;;7.25;3.70;;;;;;;;;;5001069;28;20124;-75
2022/06/01 02:54:53;;;;;;;4.57;3.33;;;;;;;;;;5005591;28;20454;-74
2022/06/01 02:57:20;;;;;;;7.00;3.80;;;;;;;;;;4996912;28;20443;-75
2022/06/01 02:59:46;;;;;;;6.20;3.42;;;;;;;;;;4992987;28;20380;-75
2022/06/01 03:02:12;;;;;;;4.43;3.22;;;;;;;;;;4995186;28;20037;-75
2022/06/01 03:04:39;;;;;;;6.50;3.70;;;;;;;;;;4997257;28;20057;-75
2022/06/01 03:07:06;;;;;;;4.63;3.70;;;;;;;;;;5008392;28;20026;-75
2022/06/01 03:09:32;;;;;;;8.40;3.50;;;;;;;;;;4991289;28;20104;-74
2022/06/01 03:11:58;;;;;;;5.18;3.65;;;;;;;;;;4995731;28;20057;-74
2022/06/01 03:14:24;;;;;;;6.65;4.00;;;;;;;;;;5005961;28;20622;-74
2022/06/01 03:16:52;;;;;;;6.85;3.80;;;;;;;;;;5005491;28;20121;-75
2022/06/01 03:19:18;;;;;;;4.50;3.60;;;;;;;;;;5010674;28;20038;-74
2022/06/01 03:21:44;;;;;;;5.57;3.60;;;;;;;;;;5002954;28;20038;-75
2022/06/01 03:24:10;;;;;;;6.30;4.18;;;;;;;;;;5003382;28;20046;-74
2022/06/01 03:26:36;;;;;;;5.13;3.70;;;;;;;;;;4996264;28;20034;-74
2022/06/01 03:29:03;;;;;;;6.03;4.00;;;;;;;;;;4991028;28;20101;-74
2022/06/01 03:31:29;;;;;;;6.43;3.72;;;;;;;;;;4994822;28;20088;-75
2022/06/01 03:33:56;;;;;;;6.78;3.53;;;;;;;;;;5002852;28;20092;-74
2022/06/01 03:36:23;;;;;;;5.70;3.90;;;;;;;;;;4997894;28;20098;-74
2022/06/01 03:38:50;;;;;;;5.15;3.83;;;;;;;;;;5005636;28;20056;-74
2022/06/01 03:41:16;;;;;;;4.53;3.45;;;;;;;;;;4998750;28;20023;-74
2022/06/01 03:46:29;;;;;;;5.30;3.60;;;;;;;;;;4997315;28;20495;-74
2022/06/01 03:48:55;;;;;;;5.25;3.58;;;;;;;;;;5001310;28;20423;-74
2022/06/01 03:51:21;;;;;;;5.75;3.60;;;;;;;;;;4997133;28;20030;-73
2022/06/01 03:53:47;;;;;;;5.97;3.35;;;;;;;;;;5006262;28;20026;-74
2022/06/01 03:56:13;;;;;;;4.35;3.67;;;;;;;;;;5001188;28;20280;-74
2022/06/01 03:58:40;;;;;;;6.68;3.92;;;;;;;;;;5018712;28;20476;-73
2022/06/01 04:01:06;;;;;;;7.88;4.30;;;;;;;;;;5007283;28;20033;-74
2022/06/01 04:03:32;;;;;;;7.22;4.32;;;;;;;;;;5000928;28;20026;-74
2022/06/01 04:05:59;;;;;;;4.30;3.35;;;;;;;;;;5001583;28;20034;-74
2022/06/01 04:08:25;;;;;;;6.45;3.67;;;;;;;;;;5005165;28;20096;-75
2022/06/01 04:10:51;;;;;;;6.40;3.38;;;;;;;;;;5005466;28;20384;-75
2022/06/01 04:13:17;;;;;;;6.97;4.05;;;;;;;;;;5003812;28;20109;-75
2022/06/01 04:15:44;;;;;;;5.20;3.65;;;;;;;;;;5002894;28;20126;-74
2022/06/01 04:18:10;;;;;;;4.53;3.38;;;;;;;;;;5001577;28;20092;-74
2022/06/01 04:20:36;;;;;;;5.57;3.75;;;;;;;;;;5007406;28;20026;-73
2022/06/01 04:23:02;;;;;;;4.88;3.53;;;;;;;;;;5004113;28;20022;-74
2022/06/01 04:25:30;;;;;;;5.20;3.92;;;;;;;;;;5008547;28;20021;-74
2022/06/01 04:27:56;;;;;;;4.88;3.40;;;;;;;;;;5022148;28;20036;-74
2022/06/01 04:30:22;;;;;;;3.63;3.10;;;;;;;;;;5004282;28;20034;-74
2022/06/01 04:32:50;;;;;;;4.38;3.70;;;;;;;;;;5002943;28;20380;-74
2022/06/01 04:35:16;;;;;;;4.45;3.45;;;;;;;;;;5006509;28;20022;-74
2022/06/01 04:37:43;;;;;;;4.60;3.55;;;;;;;;;;5004592;28;20122;-74
2022/06/01 04:40:10;;;;;;;3.92;3.42;;;;;;;;;;5006699;28;20033;-74
2022/06/01 04:42:38;;;;;;;4.78;3.63;;;;;;;;;;5007311;28;20034;-75
2022/06/01 04:45:04;;;;;;;6.32;3.90;;;;;;;;;;5000131;28;20036;-73
2022/06/01 04:47:30;;;;;;;4.80;4.03;;;;;;;;;;5005331;28;20109;-74
2022/06/01 04:49:57;;;;;;;4.13;3.08;;;;;;;;;;5008340;28;20179;-74
2022/06/01 04:52:23;;;;;;;5.82;3.65;;;;;;;;;;4997783;28;20698;-74
2022/06/01 04:54:49;;;;;;;4.88;3.72;;;;;;;;;;5010283;28;20029;-73
2022/06/01 04:57:15;;;;;;;4.93;3.75;;;;;;;;;;5006332;28;20037;-73
2022/06/01 04:59:41;;;;;;;4.90;3.60;;;;;;;;;;5009005;28;20072;-75
2022/06/01 05:02:07;;;;;;;4.28;3.40;;;;;;;;;;5004728;28;20032;-74
2022/06/01 05:04:33;;;;;;;3.50;3.17;;;;;;;;;;5011861;28;20044;-75
2022/06/01 05:07:00;;;;;;;5.20;3.60;;;;;;;;;;5004229;28;20495;-74
2022/06/01 05:09:27;;;;;;;4.93;3.90;;;;;;;;;;5007672;28;20034;-74
2022/06/01 05:11:53;;;;;;;4.35;3.28;;;;;;;;;;5007090;28;20476;-73
2022/06/01 05:14:20;;;;;;;4.28;3.40;;;;;;;;;;5012131;28;20072;-73
2022/06/01 05:16:46;;;;;;;5.38;3.50;;;;;;;;;;5005795;28;20054;-73
2022/06/01 05:19:12;;;;;;;5.15;3.28;;;;;;;;;;5005996;28;20026;-74
2022/06/01 05:21:38;;;;;;;4.70;3.38;;;;;;;;;;5005313;28;20461;-74
2022/06/01 05:24:04;;;;;;;5.30;3.78;;;;;;;;;;4991903;28;20034;-74
2022/06/01 05:26:31;;;;;;;6.15;3.90;;;;;;;;;;5010032;28;20061;-75
2022/06/01 05:28:57;;;;;;;4.68;3.72;;;;;;;;;;5006469;28;20034;-73
2022/06/01 05:31:23;;;;;;;7.63;3.80;;;;;;;;;;5006636;28;20731;-74
2022/06/01 05:33:49;;;;;;;5.10;3.90;;;;;;;;;;5002858;28;20026;-74
2022/06/01 05:36:16;;;;;;;3.97;3.35;;;;;;;;;;4996247;28;20026;-74
2022/06/01 05:38:42;;;;;;;6.53;3.90;;;;;;;;;;5005542;28;20036;-75
2022/06/01 05:41:09;;;;;;;4.72;3.50;;;;;;;;;;4999984;28;20113;-74
2022/06/01 05:43:35;;;;;;;5.60;3.58;;;;;;;;;;5005924;28;20137;-74
2022/06/01 05:46:02;;;;;;;4.38;3.53;;;;;;;;;;5007335;28;20033;-75
2022/06/01 05:48:28;;;;;;;4.95;3.53;;;;;;;;;;4999971;28;20620;-75
2022/06/01 05:50:54;;;;;;;4.20;3.80;;;;;;;;;;5003461;28;20125;-74
2022/06/01 05:53:21;;;;;;;5.28;3.90;;;;;;;;;;5011819;28;20113;-75
2022/06/01 05:55:47;;;;;;;4.72;3.60;;;;;;;;;;5010258;28;20030;-73
2022/06/01 05:58:14;;;;;;;4.55;3.40;;;;;;;;;;5005219;28;20049;-74
2022/06/01 06:00:40;;;;;;;5.32;3.85;;;;;;;;;;5008116;28;20484;-74
2022/06/01 06:03:06;;;;;;;3.95;3.42;;;;;;;;;;5005409;28;20492;-74
2022/06/01 06:08:18;;;;;;;4.32;3.90;;;;;;;;;;4999192;28;20037;-75
2022/06/01 06:10:44;;;;;;;4.47;3.42;;;;;;;;;;4997671;28;20197;-74
2022/06/01 06:13:10;;;;;;;4.63;3.67;;;;;;;;;;4997999;28;20036;-74
2022/06/01 06:15:37;;;;;;;4.05;3.50;;;;;;;;;;5007182;28;20064;-73
2022/06/01 06:18:03;;;;;;;5.05;3.40;;;;;;;;;;5012121;28;20034;-75
2022/06/01 06:20:29;;;;;;;4.22;3.83;;;;;;;;;;5014406;28;20112;-73
2022/06/01 06:22:55;;;;;;;4.30;3.88;;;;;;;;;;5011524;28;20040;-75
2022/06/01 06:25:21;;;;;;;5.80;3.75;;;;;;;;;;5010437;28;20037;-74
2022/06/01 06:27:48;;;;;;;3.97;3.20;;;;;;;;;;5006985;28;20215;-73
2022/06/01 06:30:18;;;;;;;4.43;3.53;;;;;;;;;;5009882;28;20065;-73
2022/06/01 06:32:44;;;;;;;3.97;3.30;;;;;;;;;;5007753;28;20021;-73
2022/06/01 06:35:10;;;;;;;4.15;3.83;;;;;;;;;;5001063;28;20030;-74
2022/06/01 06:37:36;;;;;;;3.72;3.20;;;;;;;;;;5002330;28;20104;-75
2022/06/01 06:40:03;;;;;;;4.13;3.45;;;;;;;;;;4997694;28;20309;-75
2022/06/01 06:42:29;;;;;;;3.58;3.28;;;;;;;;;;4995777;28;20033;-75
2022/06/01 06:44:55;;;;;;;3.65;3.20;;;;;;;;;;5005306;28;20487;-75
2022/06/01 06:47:21;;;;;;;4.15;3.35;;;;;;;;;;5010368;28;20864;-75
2022/06/01 06:49:47;;;;;;;4.45;3.35;;;;;;;;;;4996363;28;20041;-75
2022/06/01 06:52:13;;;;;;;3.50;3.20;;;;;;;;;;5011259;28;20375;-77
2022/06/01 06:54:40;;;;;;;3.67;3.13;;;;;;;;;;5012900;28;20038;-75
2022/06/01 06:57:06;;;;;;;3.40;3.10;;;;;;;;;;5010341;28;20040;-74
2022/06/01 06:59:32;;;;;;;3.92;3.00;;;;;;;;;;5010162;28;20044;-75
2022/06/01 07:01:58;;;;;;;3.50;3.15;;;;;;;;;;5013716;28;20425;-75
2022/06/01 07:04:25;;;;;;;4.18;3.38;;;;;;;;;;5014376;28;20415;-75
2022/06/01 07:06:51;;;;;;;3.47;2.92;;;;;;;;;;5010164;28;20411;-74
2022/06/01 07:09:17;;;;;;;3.92;3.45;;;;;;;;;;5014734;28;20038;-74
2022/06/01 07:11:43;;;;;;;5.55;3.58;;;;;;;;;;5013832;28;20033;-74
2022/06/01 07:14:09;;;;;;;6.13;3.20;;;;;;;;;;5017392;28;20558;-75
2022/06/01 07:16:36;;;;;;;4.18;3.40;;;;;;;;;;5012058;28;20057;-75
2022/06/01 07:19:06;;;;;;;4.70;2.95;;;;;;;;;;5011058;28;20033;-74
2022/06/01 07:21:36;;;;;;;4.78;3.35;;;;;;;;;;5016031;28;20076;-74
2022/06/01 07:24:02;;;;;;;3.40;3.10;;;;;;;;;;5013915;28;20029;-74
2022/06/01 07:26:30;;;;;;;3.38;2.92;;;;;;;;;;5012564;28;20038;-75
2022/06/01 07:28:56;;;;;;;3.88;3.45;;;;;;;;;;5014485;28;20645;-74
2022/06/01 07:31:22;;;;;;;4.32;3.10;;;;;;;;;;5017022;28;20026;-75
2022/06/01 07:33:51;;;;;;;3.40;2.97;;;;;;;;;;5008911;28;20321;-75
2022/06/01 07:36:17;;;;;;;4.00;3.03;;;;;;;;;;5014664;28;21133;-74
2022/06/01 07:44:49;;;;;;;3.25;2.80;;;;;;;;;;5001997;28;20533;-75
2022/06/01 07:47:16;;;;;;;4.22;3.28;;;;;;;;;;5020590;28;20030;-74
2022/06/01 07:49:42;;;;;;;4.40;3.45;;;;;;;;;;5015619;28;20029;-74
2022/06/01 07:52:09;;;;;;;3.60;3.30;;;;;;;;;;5015735;28;20083;-74
2022/06/01 07:54:39;;;;;;;4.03;3.38;;;;;;;;;;5015048;28;20029;-75
2022/06/01 07:57:05;;;;;;;3.92;2.90;;;;;;;;;;5014639;28;20025;-74
2022/06/01 07:59:32;;;;;;;4.03;3.20;;;;;;;;;;5019819;28;20033;-75
2022/06/01 08:01:58;;;;;;;3.72;3.33;;;;;;;;;;5016754;28;20033;-75
2022/06/01 08:04:24;;;;;;;4.30;3.78;;;;;;;;;;5020320;28;20025;-74
2022/06/01 08:06:50;;;;;;;4.13;3.72;;;;;;;;;;5014213;28;20044;-75
2022/06/01 08:09:16;;;;;;;3.55;3.20;;;;;;;;;;5017753;28;20156;-73
2022/06/01 08:14:28;;;;;;;3.30;2.92;;;;;;;;;;5017605;28;20094;-74
2022/06/01 08:16:54;;;;;;;3.95;2.85;;;;;;;;;;5013982;28;20156;-75
2022/06/01 08:19:20;;;;;;;3.42;3.13;;;;;;;;;;5014748;28;20036;-76
2022/06/01 08:21:46;;;;;;;3.15;2.85;;;;;;;;;;5017203;28;20112;-76
2022/06/01 08:24:13;;;;;;;3.40;2.80;;;;;;;;;;5010934;28;20520;-75
2022/06/01 08:26:39;;;;;;;3.03;2.55;;;;;;;;;;5017088;28;20083;-75
2022/06/01 08:29:05;;;;;;;2.55;2.33;;;;;;;;;;5017121;28;20041;-75
2022/06/01 08:31:32;;;;;;;2.88;2.50;;;;;;;;;;5025718;28;20029;-75
2022/06/01 08:33:58;;;;;;;3.10;2.67;;;;;;;;;;5016033;28;20386;-74
2022/06/01 08:36:25;;;;;;;3.47;3.17;;;;;;;;;;5011297;28;20487;-75
2022/06/01 08:38:51;;;;;;;4.90;2.50;;;;;;;;;;5015387;28;20042;-76
2022/06/01 08:41:20;;;;;;;3.22;2.75;;;;;;;;;;5013851;28;20038;-76
2022/06/01 08:43:50;;;;;;;3.15;2.47;;;;;;;;;;5013807;28;20040;-75
2022/06/01 08:46:17;;;;;;;2.50;2.30;;;;;;;;;;5016462;28;20038;-77
2022/06/01 08:48:45;;;;;;;3.75;2.72;;;;;;;;;;5011288;28;20574;-75
2022/06/01 08:51:12;;;;;;;3.25;2.47;;;;;;;;;;5020902;28;20030;-76
2022/06/01 08:53:38;;;;;;;3.10;2.80;;;;;;;;;;5013729;28;20029;-76
2022/06/01 08:56:09;;;;;;;2.80;2.50;;;;;;;;;;5018444;28;20026;-76
2022/06/01 08:58:43;;;;;;;2.70;2.50;;;;;;;;;;5014447;28;20360;-75
2022/06/01 09:01:12;;;;;;;3.05;2.22;;;;;;;;;;5017480;28;20131;-76
2022/06/01 09:03:46;;;;;;;4.63;2.67;;;;;;;;;;5015074;28;20432;-76
2022/06/01 09:06:15;;;;;;;3.67;2.53;;;;;;;;;;5015959;28;20029;-76
2022/06/01 09:08:45;;;;;;;2.63;2.35;;;;;;;;;;5016743;28;20120;-77
2022/06/01 09:11:12;;;;;;;3.00;2.70;;;;;;;;;;5010987;28;20033;-76
2022/06/01 09:14:03;;;;;;;3.10;2.80;;;;;;;;;;5016813;28;20112;-77
2022/06/01 09:16:31;;;;;;;4.10;2.70;;;;;;;;;;5009829;28;20033;-77
2022/06/01 09:18:58;;;;;;;4.57;3.85;;;;;;;;;;5012570;28;20087;-76
2022/06/01 09:24:09;;;;;;;2.72;2.40;;;;;;;;;;5011688;28;20069;-77
2022/06/01 09:26:35;;;;;;;2.60;2.10;;;;;;;;;;5016353;28;20081;-77
2022/06/01 09:29:03;;;;;;;3.75;3.00;;;;;;;;;;5015464;28;20029;-77
2022/06/01 09:31:35;;;;;;;2.70;2.30;;;;;;;;;;5014459;28;20021;-77
2022/06/01 09:34:34;;;;;;;4.82;2.88;;;;;;;;;;5011151;28;20025;-77
2022/06/01 09:37:19;;;;;;;2.75;2.08;;;;;;;;;;4996198;28;20049;-76
2022/06/01 09:39:50;;;;;;;3.17;2.30;;;;;;;;;;5014070;28;20042;-76
2022/06/01 09:42:25;;;;;;;3.03;2.40;;;;;;;;;;5017294;28;20033;-77
2022/06/01 09:44:52;;;;;;;3.25;2.95;;;;;;;;;;5020391;28;20080;-76
2022/06/01 09:47:26;;;;;;;3.08;2.15;;;;;;;;;;5008322;28;20692;-76
2022/06/01 09:49:53;;;;;;;2.55;2.30;;;;;;;;;;5020822;28;20034;-77
2022/06/01 09:52:30;;;;;;;2.45;2.20;;;;;;;;;;5031493;28;20539;-77
2022/06/01 09:54:57;;;;;;;2.88;2.35;;;;;;;;;;5016160;28;20172;-76
2022/06/01 09:57:28;;;;;;;3.85;2.30;;;;;;;;;;5012998;28;20017;-76
2022/06/01 10:08:21;;;;;;;4.82;2.95;;;;;;;;;;5012037;28;20056;-77
2022/06/01 10:11:13;;;;;;;2.83;2.63;;;;;;;;;;5015841;28;20111;-77
2022/06/01 10:13:48;;;;;;;2.60;2.40;;;;;;;;;;5016786;28;20022;-76
2022/06/01 10:16:14;;;;;;;3.60;2.50;;;;;;;;;;5015755;28;20580;-77
2022/06/01 10:18:42;;;;;;;2.72;2.40;;;;;;;;;;5022359;28;20804;-78
2022/06/01 10:21:09;;;;;;;2.95;2.58;;;;;;;;;;5018914;28;20513;-76
2022/06/01 10:23:38;;;;;;;3.30;2.60;;;;;;;;;;5012884;28;20022;-77
2022/06/01 10:26:09;;;;;;;3.47;2.40;;;;;;;;;;5010483;28;20026;-76
2022/06/01 10:28:39;;;;;;;2.58;2.38;;;;;;;;;;5013717;28;20500;-77
2022/06/01 10:31:08;;;;;;;2.30;2.10;;;;;;;;;;5011364;28;20344;-77
2022/06/01 10:33:34;;;;;;;2.05;1.85;;;;;;;;;;5030905;28;20490;-76
2022/06/01 10:36:12;;;;;;;2.47;2.20;;;;;;;;;;5014929;28;20539;-77
2022/06/01 10:38:41;;;;;;;2.22;2.03;;;;;;;;;;5018984;28;20021;-76
2022/06/01 10:41:25;;;;;;;2.50;2.15;;;;;;;;;;5010138;28;20026;-77
2022/06/01 10:43:55;;;;;;;2.25;2.05;;;;;;;;;;5011527;28;20096;-77
2022/06/01 10:46:21;;;;;;;2.40;2.10;;;;;;;;;;5013340;28;20030;-76
2022/06/01 10:48:55;;;;;;;2.40;2.20;;;;;;;;;;5010465;28;20040;-78
2022/06/01 10:51:23;;;;;;;2.30;2.10;;;;;;;;;;5013842;28;20056;-76
2022/06/01 10:54:03;;;;;;;2.35;1.90;;;;;;;;;;5025103;28;20056;-78
2022/06/01 10:56:30;;;;;;;2.88;2.00;;;;;;;;;;5013572;28;20491;-77
2022/06/01 10:58:59;;;;;;;2.05;1.80;;;;;;;;;;5019413;28;20029;-78
2022/06/01 11:01:33;;;;;;;2.17;1.95;;;;;;;;;;5010463;28;20040;-77
2022/06/01 11:04:14;;;;;;;3.38;1.80;;;;;;;;;;5020754;28;20030;-77
2022/06/01 11:07:00;;;;;;;3.20;2.17;;;;;;;;;;5009236;28;20072;-76
2022/06/01 11:09:50;;;;;;;2.35;2.15;;;;;;;;;;5009201;28;20029;-77
2022/06/01 11:12:16;;;;;;;1.92;1.80;;;;;;;;;;5013615;28;20029;-77
2022/06/01 11:15:01;;;;;;;2.00;1.80;;;;;;;;;;5015745;28;20087;-77
2022/06/01 11:17:46;;;;;;;3.33;2.05;;;;;;;;;;5016333;28;20049;-77
2022/06/01 11:20:33;;;;;;;5.03;2.22;;;;;;;;;;5012089;28;20609;-76
2022/06/01 11:23:09;;;;;;;2.25;1.80;;;;;;;;;;5014517;28;20057;-76
2022/06/01 11:25:41;;;;;;;2.28;1.90;;;;;;;;;;5017922;28;20045;-76
2022/06/01 11:28:19;;;;;;;2.08;1.88;;;;;;;;;;5016809;28;20040;-76
2022/06/01 11:30:54;;;;;;;1.90;1.80;;;;;;;;;;5010607;28;20040;-76
2022/06/01 11:33:20;;;;;;;;;;;;;;;;;;5024524;28;20026;-77
2022/06/01 11:35:52;;;;;;;2.72;2.05;;;;;;;;;;5014518;28;19936;-76
2022/06/01 11:38:22;;;;;;;2.00;1.90;;;;;;;;;;5010361;28;20042;-77
2022/06/01 11:40:57;;;;;;;1.77;1.67;;;;;;;;;;5013803;28;20044;-76
2022/06/01 11:43:29;;;;;;;3.40;1.73;;;;;;;;;;5015918;28;20033;-77
2022/06/01 11:45:59;;;;;;;2.53;1.80;;;;;;;;;;5011001;28;20113;-77
2022/06/01 11:48:36;;;;;;;1.90;1.73;;;;;;;;;;5011888;28;20068;-77
2022/06/01 11:51:16;;;;;;;3.08;1.98;;;;;;;;;;5014397;28;20043;-77
2022/06/01 11:53:42;;;;;;;1.80;1.70;;;;;;;;;;5019034;28;20022;-77
2022/06/01 11:56:26;;;;;;;1.77;1.67;;;;;;;;;;5021385;28;20504;-78
2022/06/01 11:59:24;;;;;;;2.05;1.70;;;;;;;;;;5021582;28;20029;-78
2022/06/01 12:02:02;;;;;;;2.67;1.92;;;;;;;;;;4977767;28;20350;-77
2022/06/01 12:04:51;;;;;;;2.83;1.85;;;;;;;;;;5009626;28;20034;-79
2022/06/01 12:07:31;;;;;;;2.50;1.70;;;;;;;;;;5016612;28;20449;-77
2022/06/01 12:10:03;;;;;;;2.33;1.80;;;;;;;;;;5011597;28;20026;-77
2022/06/01 12:12:38;;;;;;;2.05;1.95;;;;;;;;;;5016411;28;20044;-80
2022/06/01 12:15:04;;;;;;;2.70;1.98;;;;;;;;;;5008006;28;20030;-79
2022/06/01 12:17:32;;;;;;;2.08;1.88;;;;;;;;;;5014261;28;20172;-78
2022/06/01 12:20:13;;;;;;;1.83;1.73;;;;;;;;;;5013590;28;20030;-78
2022/06/01 12:28:46;;;;;;;2.38;2.17;;;;;;;;;;5019590;28;20036;-75
2022/06/01 12:31:18;;;;;;;3.60;1.90;;;;;;;;;;5020254;28;20024;-77
2022/06/01 12:34:03;;;;;;;3.38;1.98;;;;;;;;;;5023910;28;20085;-76
2022/06/01 12:36:31;;;;;;;2.10;1.90;;;;;;;;;;5020604;28;20129;-76
2022/06/01 12:38:57;;;;;;;1.98;1.77;;;;;;;;;;5016513;28;20096;-78
2022/06/01 12:41:26;;;;;;;2.20;2.00;;;;;;;;;;5016744;28;20030;-78
2022/06/01 12:43:55;;;;;;;2.47;1.80;;;;;;;;;;5016126;28;20068;-77
2022/06/01 12:46:24;;;;;;;2.03;1.92;;;;;;;;;;5016716;28;20034;-78
2022/06/01 12:48:50;;;;;;;2.00;1.90;;;;;;;;;;5017823;28;20475;-75
2022/06/01 12:51:17;;;;;;;2.38;1.95;;;;;;;;;;5013465;28;20104;-78
2022/06/01 12:53:48;;;;;;;2.00;1.80;;;;;;;;;;5012607;28;20022;-78
2022/06/01 12:56:16;;;;;;;2.38;2.00;;;;;;;;;;5016570;28;20087;-78
2022/06/01 12:58:44;;;;;;;1.70;1.60;;;;;;;;;;5026451;28;20026;-76
2022/06/01 13:01:13;;;;;;;5.15;2.17;;;;;;;;;;5019435;28;20045;-77
2022/06/01 13:03:50;;;;;;;1.90;1.80;;;;;;;;;;5018526;28;20092;-78
2022/06/01 13:06:19;;;;;;;1.88;1.77;;;;;;;;;;5011114;28;20392;-79
2022/06/01 13:08:55;;;;;;;1.80;1.70;;;;;;;;;;5008505;28;20495;-78
2022/06/01 13:11:23;;;;;;;2.38;1.90;;;;;;;;;;5017768;28;20034;-78
2022/06/01 13:13:51;;;;;;;3.40;1.80;;;;;;;;;;5013615;28;20057;-78
2022/06/01 13:16:17;;;;;;;1.75;1.65;;;;;;;;;;5018259;28;20022;-78
2022/06/01 13:18:44;;;;;;;2.20;1.80;;;;;;;;;;5009666;28;20034;-78
2022/06/01 13:21:17;;;;;;;2.00;1.80;;;;;;;;;;5016172;28;20061;-79
2022/06/01 13:23:48;;;;;;;2.15;1.95;;;;;;;;;;5009579;28;20167;-77
2022/06/01 13:26:22;;;;;;;4.43;2.15;;;;;;;;;;5016019;28;20030;-78
2022/06/01 13:28:48;;;;;;;2.92;1.90;;;;;;;;;;5019632;28;20037;-78
2022/06/01 13:31:14;;;;;;;2.05;1.85;;;;;;;;;;5011005;28;20029;-78
2022/06/01 13:33:42;;;;;;;1.83;1.67;;;;;;;;;;5011461;28;20037;-77
2022/06/01 13:36:10;;;;;;;2.70;1.80;;;;;;;;;;5012247;28;20507;-79
2022/06/01 13:38:49;;;;;;;2.25;1.98;;;;;;;;;;5006180;28;20041;-78
2022/06/01 13:41:21;;;;;;;2.10;1.77;;;;;;;;;;5005823;28;20033;-77
2022/06/01 13:43:48;;;;;;;2.42;1.80;;;;;;;;;;5005885;28;20452;-77
2022/06/01 13:46:35;;;;;;;4.00;2.13;;;;;;;;;;5016395;28;20144;-77
2022/06/01 13:49:01;;;;;;;2.20;1.70;;;;;;;;;;5019733;28;20085;-78
2022/06/01 13:51:34;;;;;;;2.60;1.90;;;;;;;;;;5015381;28;20026;-77
2022/06/01 13:54:01;;;;;;;3.50;2.00;;;;;;;;;;5020919;28;20056;-76
2022/06/01 13:56:30;;;;;;;2.17;1.98;;;;;;;;;;5022519;28;20033;-77
2022/06/01 13:58:59;;;;;;;2.35;2.15;;;;;;;;;;5009045;28;21633;-77
2022/06/01 14:01:43;;;;;;;2.20;2.00;;;;;;;;;;5007007;28;20029;-77
2022/06/01 14:04:23;;;;;;;3.15;1.80;;;;;;;;;;5016383;28;20037;-77
2022/06/01 14:06:53;;;;;;;2.50;1.92;;;;;;;;;;5007238;28;20411;-76
2022/06/01 14:09:22;;;;;;;2.40;2.20;;;;;;;;;;5008988;28;20041;-76
2022/06/01 14:11:48;;;;;;;2.10;1.90;;;;;;;;;;5016486;28;20022;-77
2022/06/01 14:14:20;;;;;;;4.10;2.15;;;;;;;;;;5012544;28;20034;-76
2022/06/01 14:16:50;;;;;;;2.80;2.15;;;;;;;;;;5024540;28;20026;-75
2022/06/01 14:19:16;;;;;;;2.17;1.90;;;;;;;;;;5015729;28;20302;-76
2022/06/01 14:21:43;;;;;;;3.55;2.00;;;;;;;;;;5024656;28;20116;-76
2022/06/01 14:24:09;;;;;;;1.95;1.70;;;;;;;;;;5024701;28;20040;-77
2022/06/01 14:29:20;;;;;;;2.25;1.90;;;;;;;;;;5014853;28;20124;-78
2022/06/01 14:31:46;;;;;;;2.10;1.90;;;;;;;;;;5024071;28;20037;-76
2022/06/01 14:34:13;;;;;;;2.10;1.90;;;;;;;;;;5014615;28;20047;-77
2022/06/01 14:36:39;;;;;;;2.60;1.90;;;;;;;;;;5018752;28;20567;-76
2022/06/01 14:39:06;;;;;;;2.03;1.83;;;;;;;;;;5021615;28;20173;-78
2022/06/01 14:41:38;;;;;;;2.30;2.10;;;;;;;;;;5017937;28;20034;-77
2022/06/01 14:44:06;;;;;;;2.88;2.40;;;;;;;;;;5025737;28;20426;-76
2022/06/01 14:46:32;;;;;;;2.65;2.45;;;;;;;;;;5023649;28;20030;-77
2022/06/01 14:48:59;;;;;;;2.67;2.30;;;;;;;;;;5021320;28;20030;-77
2022/06/01 14:51:29;;;;;;;2.50;2.30;;;;;;;;;;5020764;28;20100;-78
2022/06/01 14:53:56;;;;;;;2.90;2.50;;;;;;;;;;5034177;28;20037;-76
2022/06/01 14:56:22;;;;;;;3.13;2.28;;;;;;;;;;5017573;28;20705;-75
2022/06/01 14:58:48;;;;;;;2.70;2.30;;;;;;;;;;5005741;28;20030;-75
2022/06/01 15:01:17;;;;;;;2.40;2.20;;;;;;;;;;5008210;28;20045;-76
2022/06/01 15:03:45;;;;;;;3.40;2.30;;;;;;;;;;5001015;28;20771;-76
2022/06/01 15:06:13;;;;;;;2.63;2.22;;;;;;;;;;5018050;28;20022;-75
2022/06/01 15:08:39;;;;;;;2.80;2.15;;;;;;;;;;4999979;28;20036;-76
2022/06/01 15:11:06;;;;;;;2.67;2.47;;;;;;;;;;5009834;28;20021;-76
2022/06/01 15:13:36;;;;;;;3.95;2.40;;;;;;;;;;5011256;28;20470;-76
2022/06/01 15:16:04;;;;;;;3.22;2.70;;;;;;;;;;5013527;28;20037;-74
2022/06/01 15:18:31;;;;;;;3.17;2.35;;;;;;;;;;5018665;28;20029;-75
2022/06/01 15:20:57;;;;;;;4.60;2.72;;;;;;;;;;5023012;28;20052;-76
2022/06/01 15:23:24;;;;;;;3.28;2.40;;;;;;;;;;5012977;28;20161;-76
2022/06/01 15:25:50;;;;;;;2.78;2.10;;;;;;;;;;5006520;28;20414;-77
2022/06/01 15:28:17;;;;;;;4.68;2.47;;;;;;;;;;5011241;28;20327;-76
2022/06/01 15:41:42;;;;;;;2.60;2.20;;;;;;;;;;5014214;28;20687;-78
2022/06/01 15:44:08;;;;;;;2.47;2.28;;;;;;;;;;5016401;28;20029;-77